createdAt,value
2017-06-21T00:00:05.624Z,1013.61
2017-06-21T00:01:05.649Z,1013.59
2017-06-21T00:02:05.674Z,1013.62
2017-06-21T00:04:05.724Z,1013.59
2017-06-21T00:05:05.750Z,1013.59
2017-06-21T00:06:05.781Z,1013.59
2017-06-21T00:07:05.800Z,1013.59
2017-06-21T00:08:05.826Z,1013.63
2017-06-21T00:09:05.853Z,1013.65
2017-06-21T00:10:05.877Z,1013.64
2017-06-21T00:11:05.901Z,1013.64
2017-06-21T00:12:05.927Z,1013.62
2017-06-21T00:13:05.952Z,1013.65
2017-06-21T00:14:05.977Z,1013.62
2017-06-21T00:15:06.002Z,1013.62
2017-06-21T00:16:06.027Z,1013.6
2017-06-21T00:17:06.053Z,1013.56
2017-06-21T00:18:06.078Z,1013.55
2017-06-21T00:20:06.127Z,1013.55
2017-06-21T00:21:06.154Z,1013.59
2017-06-21T00:22:06.177Z,1013.63
2017-06-21T00:23:06.204Z,1013.62
2017-06-21T00:24:06.229Z,1013.64
2017-06-21T00:25:06.253Z,1013.68
2017-06-21T00:26:06.279Z,1013.67
2017-06-21T00:27:06.304Z,1013.69
2017-06-21T00:28:06.329Z,1013.63
2017-06-21T00:29:06.353Z,1013.65
2017-06-21T00:30:06.379Z,1013.61
2017-06-21T00:31:06.404Z,1013.55
2017-06-21T00:32:06.430Z,1013.58
2017-06-21T00:33:06.455Z,1013.57
2017-06-21T00:35:06.506Z,1013.6
2017-06-21T00:36:06.530Z,1013.63
2017-06-21T00:37:06.556Z,1013.64
2017-06-21T00:38:06.581Z,1013.66
2017-06-21T00:39:06.656Z,1013.65
2017-06-21T00:40:06.630Z,1013.64
2017-06-21T00:41:06.655Z,1013.63
2017-06-21T00:42:06.681Z,1013.58
2017-06-21T00:43:06.705Z,1013.54
2017-06-21T00:44:06.730Z,1013.52
2017-06-21T00:45:06.756Z,1013.5
2017-06-21T00:46:06.780Z,1013.53
2017-06-21T00:47:06.804Z,1013.59
2017-06-21T00:48:06.830Z,1013.61
2017-06-21T00:49:06.855Z,1013.63
2017-06-21T00:50:06.881Z,1013.62
2017-06-21T00:51:06.904Z,1013.62
2017-06-21T00:52:06.930Z,1013.6
2017-06-21T00:53:06.955Z,1013.54
2017-06-21T00:54:06.979Z,1013.51
2017-06-21T00:55:07.004Z,1013.48
2017-06-21T00:56:07.031Z,1013.48
2017-06-21T00:57:07.055Z,1013.47
2017-06-21T00:58:07.077Z,1013.46
2017-06-21T00:59:07.103Z,1013.5
2017-06-21T01:00:07.129Z,1013.48
2017-06-21T01:01:07.154Z,1013.5
2017-06-21T01:02:07.178Z,1013.54
2017-06-21T01:03:07.203Z,1013.48
2017-06-21T01:04:07.228Z,1013.45
2017-06-21T01:05:07.253Z,1013.49
2017-06-21T01:07:07.302Z,1013.46
2017-06-21T01:08:07.327Z,1013.46
2017-06-21T01:09:07.352Z,1013.44
2017-06-21T01:10:07.377Z,1013.43
2017-06-21T01:11:07.402Z,1013.44
2017-06-21T01:12:07.427Z,1013.42
2017-06-21T01:13:07.451Z,1013.44
2017-06-21T01:14:07.476Z,1013.42
2017-06-21T01:15:07.501Z,1013.43
2017-06-21T01:16:07.525Z,1013.45
2017-06-21T01:17:07.552Z,1013.44
2017-06-21T01:18:07.576Z,1013.45
2017-06-21T01:19:07.600Z,1013.44
2017-06-21T01:20:07.624Z,1013.47
2017-06-21T01:21:07.649Z,1013.43
2017-06-21T01:23:07.700Z,1013.46
2017-06-21T01:24:07.723Z,1013.47
2017-06-21T01:25:07.748Z,1013.45
2017-06-21T01:26:07.773Z,1013.48
2017-06-21T01:27:07.797Z,1013.5
2017-06-21T01:28:07.822Z,1013.5
2017-06-21T01:29:07.847Z,1013.49
2017-06-21T01:30:07.872Z,1013.41
2017-06-21T01:31:07.896Z,1013.39
2017-06-21T01:32:07.921Z,1013.37
2017-06-21T01:33:07.946Z,1013.34
2017-06-21T01:34:07.971Z,1013.35
2017-06-21T01:35:07.995Z,1013.39
2017-06-21T01:36:08.020Z,1013.42
2017-06-21T01:37:08.045Z,1013.43
2017-06-21T01:39:08.093Z,1013.44
2017-06-21T01:40:08.118Z,1013.46
2017-06-21T01:41:08.143Z,1013.41
2017-06-21T01:42:08.167Z,1013.4
2017-06-21T01:43:08.192Z,1013.34
2017-06-21T01:44:08.217Z,1013.33
2017-06-21T01:45:08.242Z,1013.36
2017-06-21T01:46:08.266Z,1013.35
2017-06-21T01:47:08.291Z,1013.37
2017-06-21T01:48:08.317Z,1013.4
2017-06-21T01:49:08.339Z,1013.41
2017-06-21T01:50:08.365Z,1013.39
2017-06-21T01:51:08.389Z,1013.39
2017-06-21T01:52:08.414Z,1013.37
2017-06-21T01:53:08.437Z,1013.36
2017-06-21T01:55:08.487Z,1013.4
2017-06-21T01:56:08.512Z,1013.39
2017-06-21T01:57:08.536Z,1013.41
2017-06-21T01:58:08.561Z,1013.44
2017-06-21T01:59:08.585Z,1013.42
2017-06-21T02:00:08.609Z,1013.36
2017-06-21T02:01:08.633Z,1013.37
2017-06-21T02:02:08.659Z,1013.36
2017-06-21T02:03:08.683Z,1013.39
2017-06-21T02:04:08.707Z,1013.35
2017-06-21T02:05:08.732Z,1013.37
2017-06-21T02:06:08.757Z,1013.38
2017-06-21T02:07:08.782Z,1013.37
2017-06-21T02:08:08.807Z,1013.38
2017-06-21T02:10:08.857Z,1013.35
2017-06-21T02:11:08.880Z,1013.32
2017-06-21T02:12:08.905Z,1013.32
2017-06-21T02:13:08.928Z,1013.29
2017-06-21T02:14:08.954Z,1013.34
2017-06-21T02:15:08.977Z,1013.27
2017-06-21T02:16:09.002Z,1013.34
2017-06-21T02:17:09.027Z,1013.34
2017-06-21T02:18:09.051Z,1013.34
2017-06-21T02:19:09.075Z,1013.37
2017-06-21T02:20:09.102Z,1013.42
2017-06-21T02:21:09.125Z,1013.47
2017-06-21T02:22:09.149Z,1013.44
2017-06-21T02:23:09.173Z,1013.39
2017-06-21T02:24:09.198Z,1013.4
2017-06-21T02:25:09.223Z,1013.42
2017-06-21T02:26:09.247Z,1013.43
2017-06-21T02:27:09.271Z,1013.44
2017-06-21T02:28:09.296Z,1013.46
2017-06-21T02:29:09.319Z,1013.48
2017-06-21T02:30:09.344Z,1013.45
2017-06-21T02:31:09.369Z,1013.49
2017-06-21T02:32:09.393Z,1013.49
2017-06-21T02:33:09.417Z,1013.48
2017-06-21T02:34:09.491Z,1013.51
2017-06-21T02:35:09.466Z,1013.49
2017-06-21T02:36:09.491Z,1013.51
2017-06-21T02:37:09.514Z,1013.54
2017-06-21T02:38:09.539Z,1013.56
2017-06-21T02:39:09.564Z,1013.55
2017-06-21T02:40:09.587Z,1013.56
2017-06-21T02:42:09.636Z,1013.57
2017-06-21T02:43:09.661Z,1013.59
2017-06-21T02:44:09.685Z,1013.55
2017-06-21T02:45:09.710Z,1013.55
2017-06-21T02:46:09.736Z,1013.53
2017-06-21T02:47:09.759Z,1013.57
2017-06-21T02:48:09.782Z,1013.57
2017-06-21T02:49:09.806Z,1013.56
2017-06-21T02:50:09.831Z,1013.6
2017-06-21T02:51:09.854Z,1013.6
2017-06-21T02:52:09.879Z,1013.6
2017-06-21T02:53:09.904Z,1013.58
2017-06-21T02:54:09.928Z,1013.57
2017-06-21T02:55:09.952Z,1013.55
2017-06-21T02:56:09.977Z,1013.58
2017-06-21T02:58:10.026Z,1013.55
2017-06-21T02:59:10.050Z,1013.56
2017-06-21T03:00:10.074Z,1013.61
2017-06-21T03:01:10.098Z,1013.63
2017-06-21T03:02:10.122Z,1013.64
2017-06-21T03:03:10.147Z,1013.68
2017-06-21T03:04:10.171Z,1013.69
2017-06-21T03:05:10.197Z,1013.72
2017-06-21T03:06:10.219Z,1013.72
2017-06-21T03:07:10.244Z,1013.69
2017-06-21T03:08:10.268Z,1013.71
2017-06-21T03:09:10.292Z,1013.69
2017-06-21T03:10:10.316Z,1013.7
2017-06-21T03:11:10.341Z,1013.69
2017-06-21T03:12:10.365Z,1013.71
2017-06-21T03:14:10.413Z,1013.69
2017-06-21T03:15:10.438Z,1013.71
2017-06-21T03:16:10.465Z,1013.73
2017-06-21T03:17:10.485Z,1013.75
2017-06-21T03:18:10.510Z,1013.75
2017-06-21T03:19:10.534Z,1013.76
2017-06-21T03:20:10.559Z,1013.79
2017-06-21T03:21:10.582Z,1013.79
2017-06-21T03:22:10.607Z,1013.85
2017-06-21T03:23:10.632Z,1013.81
2017-06-21T03:24:10.655Z,1013.88
2017-06-21T03:25:10.679Z,1013.86
2017-06-21T03:26:10.704Z,1013.89
2017-06-21T03:27:10.728Z,1013.9
2017-06-21T03:28:10.752Z,1013.91
2017-06-21T03:30:10.801Z,1013.92
2017-06-21T03:31:10.826Z,1013.96
2017-06-21T03:32:10.849Z,1013.99
2017-06-21T03:33:10.873Z,1013.96
2017-06-21T03:34:10.898Z,1014.03
2017-06-21T03:35:10.922Z,1014.04
2017-06-21T03:36:10.946Z,1014.06
2017-06-21T03:37:10.969Z,1014.1
2017-06-21T03:38:10.995Z,1014.12
2017-06-21T03:39:11.019Z,1014.08
2017-06-21T03:40:11.046Z,1014.06
2017-06-21T03:41:11.068Z,1014.08
2017-06-21T03:42:11.092Z,1014.06
2017-06-21T03:43:11.116Z,1014.06
2017-06-21T03:45:11.166Z,1014.03
2017-06-21T03:46:11.189Z,1014.07
2017-06-21T03:47:11.213Z,1014.09
2017-06-21T03:48:11.237Z,1014.08
2017-06-21T03:49:11.262Z,1014.1
2017-06-21T03:50:11.287Z,1014.15
2017-06-21T03:51:11.311Z,1014.16
2017-06-21T03:52:11.335Z,1014.16
2017-06-21T03:53:11.359Z,1014.15
2017-06-21T03:54:11.383Z,1014.18
2017-06-21T03:55:11.407Z,1014.19
2017-06-21T03:56:11.433Z,1014.16
2017-06-21T03:57:11.456Z,1014.16
2017-06-21T03:58:11.480Z,1014.2
2017-06-21T03:59:11.505Z,1014.19
2017-06-21T04:00:11.530Z,1014.18
2017-06-21T04:01:11.553Z,1014.16
2017-06-21T04:02:11.578Z,1014.23
2017-06-21T04:03:11.602Z,1014.22
2017-06-21T04:04:11.626Z,1014.22
2017-06-21T04:05:11.650Z,1014.24
2017-06-21T04:06:11.675Z,1014.21
2017-06-21T04:07:11.700Z,1014.27
2017-06-21T04:08:11.723Z,1014.24
2017-06-21T04:09:11.748Z,1014.22
2017-06-21T04:10:11.772Z,1014.4
2017-06-21T04:11:11.797Z,1014.55
2017-06-21T04:12:11.821Z,1014.68
2017-06-21T04:13:11.846Z,1014.75
2017-06-21T04:14:11.871Z,1014.8
2017-06-21T04:15:11.895Z,1014.73
2017-06-21T04:17:11.947Z,1014.81
2017-06-21T04:18:11.973Z,1014.84
2017-06-21T04:19:11.999Z,1014.86
2017-06-21T04:20:12.025Z,1014.9
2017-06-21T04:21:12.052Z,1014.79
2017-06-21T04:22:12.081Z,1014.9
2017-06-21T04:23:12.107Z,1014.88
2017-06-21T04:24:12.133Z,1014.86
2017-06-21T04:25:12.162Z,1014.86
2017-06-21T04:26:12.189Z,1014.84
2017-06-21T04:27:12.219Z,1014.87
2017-06-21T04:28:12.246Z,1014.92
2017-06-21T04:29:12.276Z,1014.88
2017-06-21T04:30:12.354Z,1014.94
2017-06-21T04:31:12.333Z,1014.95
2017-06-21T04:33:12.393Z,1014.91
2017-06-21T04:34:12.422Z,1014.95
2017-06-21T04:35:12.453Z,1014.94
2017-06-21T04:36:12.483Z,1015.03
2017-06-21T04:37:12.513Z,1015.06
2017-06-21T04:38:12.544Z,1015.06
2017-06-21T04:39:12.575Z,1015.04
2017-06-21T04:40:12.607Z,1015.04
2017-06-21T04:41:12.637Z,1015.09
2017-06-21T04:42:12.669Z,1015.11
2017-06-21T04:43:12.751Z,1015.05
2017-06-21T04:44:12.733Z,1015.04
2017-06-21T04:45:12.764Z,1015.1
2017-06-21T04:46:12.797Z,1015.03
2017-06-21T04:47:12.829Z,1015.04
2017-06-21T04:49:12.894Z,1015.01
2017-06-21T04:50:12.927Z,1015.03
2017-06-21T04:51:12.959Z,1014.97
2017-06-21T04:52:12.993Z,1014.98
2017-06-21T04:53:13.024Z,1015
2017-06-21T04:54:13.058Z,1014.92
2017-06-21T04:55:13.092Z,1014.92
2017-06-21T04:56:13.124Z,1014.92
2017-06-21T04:57:13.158Z,1014.88
2017-06-21T04:58:13.191Z,1014.86
2017-06-21T04:59:13.224Z,1014.81
2017-06-21T05:00:13.259Z,1014.81
2017-06-21T05:01:13.293Z,1014.78
2017-06-21T05:02:13.327Z,1014.81
2017-06-21T05:03:13.360Z,1014.8
2017-06-21T05:05:13.429Z,1014.81
2017-06-21T05:06:13.464Z,1014.79
2017-06-21T05:07:13.497Z,1014.84
2017-06-21T05:08:13.532Z,1014.83
2017-06-21T05:09:13.566Z,1014.91
2017-06-21T05:10:13.600Z,1014.91
2017-06-21T05:11:13.637Z,1014.94
2017-06-21T05:12:13.671Z,1014.97
2017-06-21T05:13:13.706Z,1014.97
2017-06-21T05:14:13.740Z,1014.99
2017-06-21T05:15:13.776Z,1014.95
2017-06-21T05:16:13.811Z,1015.01
2017-06-21T05:17:13.847Z,1015.02
2017-06-21T05:18:13.882Z,1015.04
2017-06-21T05:20:13.954Z,1015.15
2017-06-21T05:21:13.988Z,1015.14
2017-06-21T05:22:14.024Z,1015.22
2017-06-21T05:23:14.059Z,1015.24
2017-06-21T05:24:14.096Z,1015.25
2017-06-21T05:25:14.131Z,1015.25
2017-06-21T05:26:14.166Z,1015.27
2017-06-21T05:27:14.202Z,1015.25
2017-06-21T05:28:14.237Z,1015.25
2017-06-21T05:29:14.274Z,1015.24
2017-06-21T05:30:14.310Z,1015.27
2017-06-21T05:31:14.346Z,1015.29
2017-06-21T05:32:14.381Z,1015.28
2017-06-21T05:33:14.418Z,1015.28
2017-06-21T05:34:14.454Z,1015.22
2017-06-21T05:35:14.490Z,1015.26
2017-06-21T05:36:14.526Z,1015.31
2017-06-21T05:37:14.562Z,1015.27
2017-06-21T05:38:14.599Z,1015.28
2017-06-21T05:39:14.639Z,1015.27
2017-06-21T05:40:14.671Z,1015.24
2017-06-21T05:41:14.707Z,1015.25
2017-06-21T05:42:14.743Z,1015.29
2017-06-21T05:43:14.780Z,1015.32
2017-06-21T05:44:14.816Z,1015.32
2017-06-21T05:45:14.853Z,1015.36
2017-06-21T05:46:14.890Z,1015.39
2017-06-21T05:47:14.925Z,1015.4
2017-06-21T05:48:14.962Z,1015.43
2017-06-21T05:49:14.999Z,1015.44
2017-06-21T05:50:15.036Z,1015.41
2017-06-21T05:52:15.109Z,1015.38
2017-06-21T05:53:15.147Z,1015.39
2017-06-21T05:54:15.182Z,1015.39
2017-06-21T05:55:15.221Z,1015.39
2017-06-21T05:56:15.257Z,1015.37
2017-06-21T05:57:15.293Z,1015.4
2017-06-21T05:58:15.330Z,1015.43
2017-06-21T05:59:15.367Z,1015.4
2017-06-21T06:00:15.504Z,1015.35
2017-06-21T06:01:15.440Z,1015.36
2017-06-21T06:02:15.478Z,1015.27
2017-06-21T06:03:15.515Z,1015.18
2017-06-21T06:04:15.553Z,1015.15
2017-06-21T06:05:15.590Z,1015.2
2017-06-21T06:06:15.628Z,1015.16
2017-06-21T06:08:15.702Z,1015.15
2017-06-21T06:09:15.738Z,1015.09
2017-06-21T06:10:15.776Z,1015.08
2017-06-21T06:11:15.814Z,1015.11
2017-06-21T06:12:15.850Z,1015.09
2017-06-21T06:13:15.888Z,1015.09
2017-06-21T06:14:15.926Z,1015.11
2017-06-21T06:15:15.964Z,1015.16
2017-06-21T06:16:16.001Z,1015.18
2017-06-21T06:17:16.039Z,1015.19
2017-06-21T06:18:16.077Z,1015.19
2017-06-21T06:19:16.115Z,1015.18
2017-06-21T06:20:16.153Z,1015.18
2017-06-21T06:21:16.191Z,1015.15
2017-06-21T06:22:16.230Z,1015.13
2017-06-21T06:24:16.304Z,1015.2
2017-06-21T06:25:16.393Z,1015.22
2017-06-21T06:26:16.381Z,1015.19
2017-06-21T06:27:16.419Z,1015.23
2017-06-21T06:28:16.456Z,1015.2
2017-06-21T06:29:16.495Z,1015.25
2017-06-21T06:30:16.534Z,1015.29
2017-06-21T06:31:16.571Z,1015.36
2017-06-21T06:32:16.609Z,1015.43
2017-06-21T06:33:16.648Z,1015.5
2017-06-21T06:34:16.685Z,1015.54
2017-06-21T06:35:16.723Z,1015.56
2017-06-21T06:36:16.762Z,1015.57
2017-06-21T06:37:16.801Z,1015.57
2017-06-21T06:38:16.837Z,1015.58
2017-06-21T06:40:16.914Z,1015.62
2017-06-21T06:41:16.952Z,1015.64
2017-06-21T06:42:16.990Z,1015.66
2017-06-21T06:43:17.028Z,1015.65
2017-06-21T06:44:17.066Z,1015.53
2017-06-21T06:45:17.105Z,1015.5
2017-06-21T06:46:17.142Z,1015.55
2017-06-21T06:47:17.181Z,1015.56
2017-06-21T06:48:17.220Z,1015.51
2017-06-21T06:49:17.257Z,1015.58
2017-06-21T06:50:17.296Z,1015.54
2017-06-21T06:51:17.336Z,1015.5
2017-06-21T06:52:17.373Z,1015.46
2017-06-21T06:53:17.413Z,1015.5
2017-06-21T06:55:17.490Z,1015.44
2017-06-21T06:56:17.528Z,1015.43
2017-06-21T06:57:17.566Z,1015.45
2017-06-21T06:58:17.605Z,1015.45
2017-06-21T06:59:17.644Z,1015.41
2017-06-21T07:00:17.681Z,1015.43
2017-06-21T07:01:17.746Z,1015.43
2017-06-21T07:02:17.762Z,1015.44
2017-06-21T07:03:17.847Z,1015.47
2017-06-21T07:04:17.835Z,1015.53
2017-06-21T07:05:17.875Z,1015.53
2017-06-21T07:06:17.914Z,1015.58
2017-06-21T07:07:17.952Z,1015.63
2017-06-21T07:08:17.990Z,1015.66
2017-06-21T07:09:18.029Z,1015.67
2017-06-21T07:10:18.068Z,1015.66
2017-06-21T07:11:18.106Z,1015.67
2017-06-21T07:12:18.145Z,1015.62
2017-06-21T07:13:18.183Z,1015.69
2017-06-21T07:14:18.221Z,1015.72
2017-06-21T07:15:18.259Z,1015.74
2017-06-21T07:16:18.299Z,1015.8
2017-06-21T07:17:18.338Z,1015.88
2017-06-21T07:18:18.376Z,1015.87
2017-06-21T07:19:18.415Z,1015.86
2017-06-21T07:20:18.454Z,1015.86
2017-06-21T07:21:18.493Z,1016.08
2017-06-21T07:22:18.530Z,1016.07
2017-06-21T07:23:18.569Z,1016.16
2017-06-21T07:24:18.607Z,1016.25
2017-06-21T07:25:18.645Z,1016.22
2017-06-21T07:27:18.722Z,1016.27
2017-06-21T07:28:18.761Z,1016.29
2017-06-21T07:29:18.798Z,1016.29
2017-06-21T07:30:18.838Z,1016.37
2017-06-21T07:31:18.876Z,1016.34
2017-06-21T07:32:18.914Z,1016.38
2017-06-21T07:33:18.951Z,1016.44
2017-06-21T07:34:18.989Z,1016.02
2017-06-21T07:35:19.028Z,1015.37
2017-06-21T07:36:19.065Z,1015.17
2017-06-21T07:37:19.104Z,1015.15
2017-06-21T07:38:19.142Z,1015.08
2017-06-21T07:39:19.180Z,1015.08
2017-06-21T07:40:19.217Z,1015.09
2017-06-21T07:41:19.256Z,1015.03
2017-06-21T07:43:19.332Z,1015.13
2017-06-21T07:44:19.370Z,1015.1
2017-06-21T07:45:19.457Z,1015.12
2017-06-21T07:46:19.447Z,1015.03
2017-06-21T07:47:19.484Z,1015
2017-06-21T07:48:19.521Z,1015.04
2017-06-21T07:49:19.559Z,1014.99
2017-06-21T07:50:19.599Z,1015.05
2017-06-21T07:51:19.635Z,1015.03
2017-06-21T07:52:19.674Z,1015.01
2017-06-21T07:53:19.713Z,1015.01
2017-06-21T07:54:19.753Z,1015.01
2017-06-21T07:55:19.788Z,1015.01
2017-06-21T07:56:19.827Z,1015
2017-06-21T07:57:19.914Z,1015
2017-06-21T07:59:19.940Z,1015.13
2017-06-21T08:00:19.978Z,1015.34
2017-06-21T08:01:20.016Z,1015.52
2017-06-21T08:02:20.053Z,1015.47
2017-06-21T08:03:20.090Z,1015.46
2017-06-21T08:04:20.128Z,1015.37
2017-06-21T08:05:20.166Z,1015.32
2017-06-21T08:06:20.203Z,1015.31
2017-06-21T08:07:20.242Z,1015.3
2017-06-21T08:08:20.278Z,1015.25
2017-06-21T08:09:20.315Z,1015.23
2017-06-21T08:10:20.353Z,1015.23
2017-06-21T08:11:20.392Z,1015.19
2017-06-21T08:12:20.429Z,1015.28
2017-06-21T08:13:20.466Z,1015.22
2017-06-21T08:15:20.541Z,1015.17
2017-06-21T08:16:20.578Z,1015.16
2017-06-21T08:17:20.615Z,1015.2
2017-06-21T08:18:20.653Z,1015.17
2017-06-21T08:19:20.690Z,1015.17
2017-06-21T08:20:20.727Z,1015.14
2017-06-21T08:21:20.764Z,1015.14
2017-06-21T08:22:20.801Z,1015.08
2017-06-21T08:23:20.839Z,1015.12
2017-06-21T08:24:20.874Z,1015.09
2017-06-21T08:25:20.911Z,1015.06
2017-06-21T08:26:20.948Z,1015.13
2017-06-21T08:27:20.986Z,1015.11
2017-06-21T08:28:21.023Z,1015.05
2017-06-21T08:30:21.096Z,1015.06
2017-06-21T08:31:21.132Z,1015.08
2017-06-21T08:32:21.169Z,1015.03
2017-06-21T08:33:21.206Z,1014.99
2017-06-21T08:34:21.243Z,1014.98
2017-06-21T08:35:21.278Z,1014.98
2017-06-21T08:36:21.316Z,1014.89
2017-06-21T08:37:21.352Z,1014.89
2017-06-21T08:38:21.388Z,1014.82
2017-06-21T08:39:21.475Z,1014.83
2017-06-21T08:40:21.462Z,1014.86
2017-06-21T08:41:21.498Z,1014.92
2017-06-21T08:42:21.534Z,1014.96
2017-06-21T08:43:21.570Z,1014.88
2017-06-21T08:44:21.607Z,1014.87
2017-06-21T08:45:21.644Z,1014.95
2017-06-21T08:46:21.680Z,1015.01
2017-06-21T08:47:21.717Z,1014.96
2017-06-21T08:48:21.753Z,1014.94
2017-06-21T08:49:21.789Z,1014.51
2017-06-21T08:50:21.826Z,1014.34
2017-06-21T08:51:21.862Z,1014.67
2017-06-21T08:52:21.898Z,1014.52
2017-06-21T08:53:21.934Z,1014.55
2017-06-21T08:54:21.970Z,1014.54
2017-06-21T08:55:22.007Z,1014.57
2017-06-21T08:56:22.043Z,1014.52
2017-06-21T08:57:22.078Z,1014.5
2017-06-21T08:58:22.114Z,1014.4
2017-06-21T08:59:22.151Z,1014.4
2017-06-21T09:00:22.185Z,1014.43
2017-06-21T09:02:22.257Z,1014.33
2017-06-21T09:03:22.293Z,1014.37
2017-06-21T09:04:22.328Z,1014.41
2017-06-21T09:05:22.365Z,1014.37
2017-06-21T09:06:22.400Z,1014.35
2017-06-21T09:07:22.437Z,1014.39
2017-06-21T09:08:22.471Z,1014.36
2017-06-21T09:09:22.508Z,1014.4
2017-06-21T09:10:22.543Z,1014.39
2017-06-21T09:11:22.578Z,1014.38
2017-06-21T09:12:22.614Z,1014.37
2017-06-21T09:13:22.650Z,1014.37
2017-06-21T09:14:22.686Z,1014.35
2017-06-21T09:15:22.721Z,1014.41
2017-06-21T09:16:22.757Z,1014.37
2017-06-21T09:18:22.828Z,1014.34
2017-06-21T09:19:22.862Z,1014.37
2017-06-21T09:20:22.949Z,1014.27
2017-06-21T09:21:22.935Z,1014.3
2017-06-21T09:22:22.972Z,1014.29
2017-06-21T09:23:23.005Z,1014.3
2017-06-21T09:24:23.040Z,1014.3
2017-06-21T09:25:23.076Z,1014.24
2017-06-21T09:26:23.110Z,1014.28
2017-06-21T09:27:23.147Z,1014.28
2017-06-21T09:28:23.181Z,1014.29
2017-06-21T09:29:23.217Z,1014.24
2017-06-21T09:30:23.252Z,1014.32
2017-06-21T09:31:23.287Z,1014.27
2017-06-21T09:32:23.322Z,1014.37
2017-06-21T09:34:23.391Z,1014.31
2017-06-21T09:35:23.427Z,1014.37
2017-06-21T09:36:23.462Z,1014.29
2017-06-21T09:37:23.497Z,1014.26
2017-06-21T09:38:23.531Z,1014.26
2017-06-21T09:39:23.569Z,1014.22
2017-06-21T09:40:23.602Z,1014.17
2017-06-21T09:41:23.636Z,1014.22
2017-06-21T09:42:23.671Z,1014.23
2017-06-21T09:43:23.706Z,1014.22
2017-06-21T09:44:23.741Z,1014.25
2017-06-21T09:45:23.775Z,1014.27
2017-06-21T09:46:23.811Z,1014.28
2017-06-21T09:47:23.846Z,1014.21
2017-06-21T09:48:23.879Z,1014.23
2017-06-21T09:50:23.950Z,1014.02
2017-06-21T09:51:23.984Z,1014.21
2017-06-21T09:52:24.019Z,1014.21
2017-06-21T09:53:24.053Z,1014.2
2017-06-21T09:54:24.089Z,1014.21
2017-06-21T09:55:24.122Z,1014.19
2017-06-21T09:56:24.157Z,1014.2
2017-06-21T09:57:24.192Z,1014.18
2017-06-21T09:58:24.226Z,1014.17
2017-06-21T09:59:24.260Z,1014.2
2017-06-21T10:00:24.346Z,1014.17
2017-06-21T10:01:24.330Z,1014.11
2017-06-21T10:02:24.364Z,1014.16
2017-06-21T10:03:24.399Z,1014.2
2017-06-21T10:05:24.468Z,1014.2
2017-06-21T10:06:24.505Z,1014.18
2017-06-21T10:07:24.538Z,1014.19
2017-06-21T10:08:24.572Z,1014.15
2017-06-21T10:09:24.609Z,1014.18
2017-06-21T10:10:24.641Z,1014.14
2017-06-21T10:11:24.674Z,1014.14
2017-06-21T10:12:24.709Z,1014.17
2017-06-21T10:13:24.742Z,1014.13
2017-06-21T10:14:24.777Z,1014.15
2017-06-21T10:15:24.814Z,1014.2
2017-06-21T10:16:24.845Z,1014.17
2017-06-21T10:17:24.879Z,1014.16
2017-06-21T10:18:24.914Z,1014.19
2017-06-21T10:19:24.998Z,1014.25
2017-06-21T10:20:24.982Z,1014.24
2017-06-21T10:21:25.014Z,1014.23
2017-06-21T10:22:25.049Z,1014.17
2017-06-21T10:23:25.083Z,1014.12
2017-06-21T10:24:25.116Z,1014.13
2017-06-21T10:25:25.150Z,1014.14
2017-06-21T10:26:25.184Z,1014.07
2017-06-21T10:27:25.218Z,1014.1
2017-06-21T10:28:25.251Z,1014.1
2017-06-21T10:29:25.285Z,1014.09
2017-06-21T10:30:25.319Z,1014
2017-06-21T10:31:25.353Z,1014.1
2017-06-21T10:32:25.385Z,1014.13
2017-06-21T10:33:25.419Z,1014.07
2017-06-21T10:34:25.453Z,1014.04
2017-06-21T10:35:25.486Z,1014.02
2017-06-21T10:37:25.552Z,1014.03
2017-06-21T10:38:25.587Z,1013.96
2017-06-21T10:39:25.619Z,1013.97
2017-06-21T10:40:25.652Z,1014.1
2017-06-21T10:41:25.685Z,1014.11
2017-06-21T10:42:25.718Z,1014.12
2017-06-21T10:43:25.751Z,1014.09
2017-06-21T10:44:25.785Z,1014.06
2017-06-21T10:45:25.818Z,1014.08
2017-06-21T10:46:25.850Z,1014.11
2017-06-21T10:47:25.883Z,1014.13
2017-06-21T10:48:25.915Z,1014.1
2017-06-21T10:49:25.949Z,1014.06
2017-06-21T10:50:25.982Z,1014.04
2017-06-21T10:51:26.014Z,1014.08
2017-06-21T10:53:26.080Z,1013.99
2017-06-21T10:54:26.112Z,1014
2017-06-21T10:55:26.145Z,1013.99
2017-06-21T10:56:26.178Z,1013.95
2017-06-21T10:57:26.210Z,1013.93
2017-06-21T10:58:26.242Z,1013.99
2017-06-21T10:59:26.275Z,1013.97
2017-06-21T11:00:26.307Z,1013.95
2017-06-21T11:01:26.339Z,1013.92
2017-06-21T11:02:26.371Z,1013.99
2017-06-21T11:03:26.404Z,1013.99
2017-06-21T11:04:26.436Z,1013.96
2017-06-21T11:05:26.467Z,1013.94
2017-06-21T11:06:26.500Z,1013.91
2017-06-21T11:07:26.532Z,1013.9
2017-06-21T11:09:26.595Z,1013.82
2017-06-21T11:10:26.627Z,1013.83
2017-06-21T11:11:26.659Z,1013.85
2017-06-21T11:12:26.690Z,1013.84
2017-06-21T11:13:26.722Z,1013.78
2017-06-21T11:14:26.753Z,1013.69
2017-06-21T11:15:26.786Z,1013.69
2017-06-21T11:16:26.817Z,1013.72
2017-06-21T11:17:26.848Z,1013.75
2017-06-21T11:18:26.880Z,1013.7
2017-06-21T11:19:26.911Z,1013.71
2017-06-21T11:20:26.945Z,1013.7
2017-06-21T11:21:26.975Z,1013.73
2017-06-21T11:22:27.007Z,1013.75
2017-06-21T11:23:27.038Z,1013.74
2017-06-21T11:25:27.101Z,1013.69
2017-06-21T11:26:27.133Z,1013.73
2017-06-21T11:27:27.164Z,1013.78
2017-06-21T11:28:27.194Z,1013.72
2017-06-21T11:29:27.227Z,1013.75
2017-06-21T11:30:27.256Z,1013.73
2017-06-21T11:31:27.289Z,1013.75
2017-06-21T11:32:27.323Z,1013.73
2017-06-21T11:33:27.352Z,1013.68
2017-06-21T11:34:27.386Z,1013.74
2017-06-21T11:35:27.414Z,1013.69
2017-06-21T11:36:27.446Z,1013.71
2017-06-21T11:37:27.477Z,1013.63
2017-06-21T11:38:27.511Z,1013.6
2017-06-21T11:40:27.572Z,1013.54
2017-06-21T11:41:27.602Z,1013.49
2017-06-21T11:42:27.683Z,1013.48
2017-06-21T11:43:27.665Z,1013.46
2017-06-21T11:44:27.696Z,1013.44
2017-06-21T11:45:27.727Z,1013.53
2017-06-21T11:46:27.756Z,1013.56
2017-06-21T11:47:27.789Z,1013.47
2017-06-21T11:48:27.820Z,1013.44
2017-06-21T11:49:27.851Z,1013.4
2017-06-21T11:50:27.882Z,1013.37
2017-06-21T11:51:27.914Z,1013.42
2017-06-21T11:52:27.943Z,1013.39
2017-06-21T11:53:27.974Z,1013.36
2017-06-21T11:54:28.006Z,1013.36
2017-06-21T11:55:28.037Z,1013.33
2017-06-21T11:56:28.068Z,1013.36
2017-06-21T11:57:28.098Z,1013.31
2017-06-21T11:58:28.130Z,1013.33
2017-06-21T11:59:28.159Z,1013.3
2017-06-21T12:00:28.192Z,1013.32
2017-06-21T12:01:28.223Z,1013.3
2017-06-21T12:02:28.253Z,1013.2
2017-06-21T12:03:28.284Z,1013.2
2017-06-21T12:04:28.315Z,1013.28
2017-06-21T12:05:28.348Z,1013.23
2017-06-21T12:06:28.377Z,1013.28
2017-06-21T12:07:28.407Z,1013.31
2017-06-21T12:08:28.439Z,1013.25
2017-06-21T12:09:28.472Z,1013.22
2017-06-21T12:10:28.506Z,1013.23
2017-06-21T12:12:28.562Z,1013.24
2017-06-21T12:13:28.595Z,1013.24
2017-06-21T12:14:28.624Z,1013.22
2017-06-21T12:15:28.655Z,1013.18
2017-06-21T12:16:28.686Z,1013.2
2017-06-21T12:17:28.718Z,1013.2
2017-06-21T12:18:28.749Z,1013.19
2017-06-21T12:19:28.778Z,1013.16
2017-06-21T12:20:28.810Z,1013.13
2017-06-21T12:21:28.840Z,1013.2
2017-06-21T12:22:28.872Z,1013.2
2017-06-21T12:23:28.903Z,1013.21
2017-06-21T12:24:28.934Z,1013.13
2017-06-21T12:25:28.965Z,1013.07
2017-06-21T12:26:28.994Z,1013.08
2017-06-21T12:28:29.056Z,1013.08
2017-06-21T12:29:29.087Z,1013.13
2017-06-21T12:30:29.119Z,1013.1
2017-06-21T12:31:29.149Z,1013.07
2017-06-21T12:32:29.179Z,1013.14
2017-06-21T12:33:29.212Z,1013.09
2017-06-21T12:34:29.241Z,1013.07
2017-06-21T12:35:29.272Z,1013.1
2017-06-21T12:36:29.301Z,1013.05
2017-06-21T12:37:29.333Z,1013.05
2017-06-21T12:38:29.364Z,1013.05
2017-06-21T12:39:29.445Z,1012.98
2017-06-21T12:40:29.425Z,1013.03
2017-06-21T12:41:29.456Z,1013.02
2017-06-21T12:42:29.487Z,1012.95
2017-06-21T12:44:29.548Z,1012.9
2017-06-21T12:45:29.580Z,1013
2017-06-21T12:46:29.610Z,1012.98
2017-06-21T12:47:29.639Z,1013
2017-06-21T12:48:29.670Z,1013
2017-06-21T12:49:29.701Z,1013.05